createdAt,value
2022-08-23T00:03:26.271Z,72.14
2022-08-23T00:08:29.381Z,72.40
2022-08-23T00:13:47.752Z,72.55
2022-08-23T00:18:51.152Z,72.61
2022-08-23T00:23:53.953Z,73.12
2022-08-23T00:28:58.121Z,73.12
2022-08-23T00:34:01.073Z,73.00
2022-08-23T00:39:04.490Z,72.94
2022-08-23T00:44:29.026Z,73.08
2022-08-23T00:49:33.295Z,73.41
2022-08-23T00:54:37.924Z,73.48
2022-08-23T00:59:42.442Z,73.39
2022-08-23T01:04:49.859Z,73.79
2022-08-23T01:09:55.148Z,73.77
2022-08-23T01:15:02.245Z,74.11
2022-08-23T01:20:08.807Z,74.26
2022-08-23T01:25:17.882Z,74.39
2022-08-23T01:30:23.867Z,74.46
2022-08-23T01:35:33.478Z,74.52
2022-08-23T01:40:38.515Z,74.54
2022-08-23T01:45:43.899Z,74.83
2022-08-23T01:50:48.687Z,74.98
2022-08-23T01:55:52.850Z,75.06
2022-08-23T02:00:57.833Z,75.21
2022-08-23T02:06:00.845Z,75.23
2022-08-23T02:11:10.555Z,75.43
2022-08-23T02:16:23.697Z,75.21
2022-08-23T02:21:27.651Z,75.15
2022-08-23T02:26:32.230Z,75.16
2022-08-23T02:31:39.685Z,75.20
2022-08-23T02:36:43.299Z,75.20
2022-08-23T02:41:48.296Z,75.30
2022-08-23T02:46:51.418Z,75.58
2022-08-23T02:51:54.270Z,77.18
2022-08-23T02:56:58.690Z,77.14
2022-08-23T03:02:01.949Z,76.98
2022-08-23T03:07:09.845Z,76.60
2022-08-23T03:12:15.218Z,75.94
2022-08-23T03:17:34.292Z,75.86
2022-08-23T03:22:40.166Z,76.04
2022-08-23T03:27:53.480Z,76.04
2022-08-23T03:32:57.260Z,75.80
2022-08-23T03:38:00.440Z,75.83
2022-08-23T03:43:05.018Z,75.92
2022-08-23T03:48:07.868Z,76.04
2022-08-23T03:53:12.060Z,76.15
2022-08-23T03:58:18.429Z,76.15
2022-08-23T04:03:21.358Z,75.93
2022-08-23T04:08:36.427Z,75.88
2022-08-23T04:13:43.006Z,75.70
2022-08-23T04:18:47.732Z,76.06
2022-08-23T04:23:52.874Z,76.90
2022-08-23T04:28:57.980Z,77.61
2022-08-23T04:34:01.466Z,77.40
2022-08-23T04:39:04.463Z,76.88
2022-08-23T04:44:09.541Z,76.39
2022-08-23T04:49:12.670Z,76.10
2022-08-23T04:54:19.011Z,75.84
2022-08-23T04:59:46.995Z,76.07
2022-08-23T05:04:51.561Z,76.16
2022-08-23T05:09:54.393Z,75.94
2022-08-23T05:14:58.628Z,75.78
2022-08-23T05:20:02.424Z,75.76
2022-08-23T05:25:06.781Z,75.79
2022-08-23T05:30:15.287Z,75.80
2022-08-23T05:35:21.133Z,75.80
2022-08-23T05:40:24.097Z,75.83
2022-08-23T05:45:41.111Z,76.06
2022-08-23T05:50:47.911Z,75.83
2022-08-23T05:55:51.392Z,75.60
2022-08-23T06:00:57.429Z,75.77
2022-08-23T06:06:00.658Z,75.59
2022-08-23T06:11:04.683Z,75.18
2022-08-23T06:16:15.961Z,75.12
2022-08-23T06:21:20.144Z,74.88
2022-08-23T06:26:26.976Z,74.96
2022-08-23T06:31:47.262Z,75.31
2022-08-23T06:36:55.124Z,75.23
2022-08-23T06:42:38.009Z,75.17
2022-08-23T06:47:42.332Z,75.00
2022-08-23T06:52:48.183Z,75.06
2022-08-23T06:58:08.414Z,75.05
2022-08-23T07:03:37.342Z,75.08
2022-08-23T07:08:59.947Z,75.04
2022-08-23T07:14:06.307Z,74.91
2022-08-23T07:19:12.216Z,75.08
2022-08-23T07:24:15.557Z,74.95
2022-08-23T07:29:19.787Z,74.56
2022-08-23T07:34:24.859Z,74.48
2022-08-23T07:39:27.964Z,74.65
2022-08-23T07:44:31.172Z,74.40
2022-08-23T07:49:36.737Z,73.96
2022-08-23T07:54:40.367Z,74.11
2022-08-23T08:00:01.375Z,73.95
2022-08-23T08:05:06.483Z,73.58
2022-08-23T08:10:09.830Z,73.65
2022-08-23T08:15:13.030Z,73.05
2022-08-23T08:20:18.531Z,73.02
2022-08-23T08:25:50.755Z,73.10
2022-08-23T08:30:55.817Z,72.87
2022-08-23T08:36:01.283Z,72.67
2022-08-23T08:41:25.524Z,72.67
2022-08-23T08:46:38.775Z,72.12
2022-08-23T08:51:48.607Z,71.96
2022-08-23T08:56:54.078Z,71.24
2022-08-23T09:02:01.816Z,70.35
2022-08-23T09:07:15.967Z,70.00
2022-08-23T09:12:24.914Z,69.90
2022-08-23T09:17:34.463Z,68.84
2022-08-23T09:22:44.474Z,69.13
2022-08-23T09:27:57.228Z,69.37
2022-08-23T09:33:16.257Z,69.20
2022-08-23T09:38:21.538Z,70.06
2022-08-23T09:43:31.598Z,70.42
2022-08-23T09:48:39.042Z,70.96
2022-08-23T09:53:49.605Z,70.34
2022-08-23T09:58:54.485Z,70.30
2022-08-23T10:04:16.101Z,70.75
2022-08-23T10:09:30.437Z,69.81
2022-08-23T10:14:34.092Z,69.40
2022-08-23T10:19:42.655Z,68.39
2022-08-23T10:24:49.432Z,68.41
2022-08-23T10:29:59.386Z,68.05
2022-08-23T10:35:15.050Z,68.08
2022-08-23T10:40:28.392Z,68.12
2022-08-23T10:45:34.098Z,68.13
2022-08-23T10:50:55.559Z,67.18
2022-08-23T10:56:04.158Z,67.38
2022-08-23T11:01:16.296Z,66.91
2022-08-23T11:06:44.465Z,65.89
2022-08-23T11:11:51.586Z,65.12
2022-08-23T11:16:59.483Z,65.28
2022-08-23T11:22:15.111Z,66.00
2022-08-23T11:27:37.271Z,67.03
2022-08-23T11:32:44.127Z,67.79
2022-08-23T11:38:01.636Z,68.16
2022-08-23T11:43:27.346Z,67.63
2022-08-23T11:48:43.692Z,63.64
2022-08-23T11:54:18.112Z,55.98
2022-08-23T11:59:43.024Z,52.65
2022-08-23T12:04:50.642Z,49.30
2022-08-23T12:09:56.280Z,43.57
2022-08-23T12:15:01.844Z,42.19
2022-08-23T12:20:16.882Z,49.07
2022-08-23T12:25:21.314Z,51.90
2022-08-23T12:30:28.719Z,50.31
2022-08-23T12:35:36.194Z,49.34
2022-08-23T12:40:42.630Z,50.94
2022-08-23T12:45:49.782Z,51.86
2022-08-23T12:50:57.530Z,49.59
2022-08-23T12:56:02.407Z,47.87
2022-08-23T13:01:09.227Z,47.15
2022-08-23T13:06:15.936Z,47.09
2022-08-23T13:11:22.250Z,47.03
2022-08-23T13:16:29.512Z,46.91
2022-08-23T13:21:39.545Z,46.63
2022-08-23T13:26:44.557Z,45.86
2022-08-23T13:31:57.177Z,45.53
2022-08-23T13:37:03.927Z,48.45
2022-08-23T13:42:06.918Z,49.30
2022-08-23T13:47:22.812Z,48.86
2022-08-23T13:57:48.640Z,45.47
2022-08-23T14:02:52.800Z,45.15
2022-08-23T14:07:56.399Z,44.23
2022-08-23T14:13:00.668Z,44.42
2022-08-23T14:18:05.291Z,44.39
2022-08-23T14:23:12.015Z,47.39
2022-08-23T14:28:15.239Z,50.50
2022-08-23T14:33:20.413Z,52.36
2022-08-23T14:38:23.434Z,53.17
2022-08-23T14:43:27.056Z,52.84
2022-08-23T14:48:31.333Z,51.93
2022-08-23T14:53:41.190Z,48.43
2022-08-23T14:58:44.648Z,44.84
2022-08-23T15:03:49.289Z,43.83
2022-08-23T15:08:52.166Z,40.70
2022-08-23T15:13:56.360Z,33.79
2022-08-23T15:19:01.312Z,35.97
2022-08-23T15:24:05.359Z,36.31
2022-08-23T15:29:08.421Z,37.57
2022-08-23T15:34:13.331Z,40.64
2022-08-23T15:39:16.117Z,42.72
2022-08-23T15:44:18.984Z,43.99
2022-08-23T15:49:24.081Z,44.96
2022-08-23T15:54:26.897Z,45.34
2022-08-23T15:59:30.323Z,44.12
2022-08-23T16:04:35.863Z,45.88
2022-08-23T16:09:38.817Z,47.92
2022-08-23T16:14:41.693Z,48.23
2022-08-23T16:19:45.782Z,48.77
2022-08-23T16:24:48.622Z,50.28
2022-08-23T16:29:51.357Z,51.53
2022-08-23T16:34:55.826Z,51.29
2022-08-23T16:39:58.641Z,49.93
2022-08-23T16:45:01.812Z,49.15
2022-08-23T16:50:06.811Z,48.61
2022-08-23T16:55:12.570Z,48.18
2022-08-23T17:00:15.962Z,48.75
2022-08-23T17:05:20.291Z,49.27
2022-08-23T17:10:23.872Z,49.47
2022-08-23T17:15:33.918Z,50.03
2022-08-23T17:20:40.034Z,50.61
2022-08-23T17:25:47.566Z,50.47
2022-08-23T17:30:50.390Z,50.60
2022-08-23T17:35:54.551Z,51.28
2022-08-23T17:40:57.520Z,51.71
2022-08-23T17:46:00.288Z,52.08
2022-08-23T17:51:04.467Z,52.99
2022-08-23T17:56:11.711Z,53.63
2022-08-23T18:01:15.427Z,53.85
2022-08-23T18:06:19.909Z,54.52
2022-08-23T18:11:22.957Z,55.35
2022-08-23T18:16:30.751Z,55.63
2022-08-23T18:21:39.461Z,55.95
2022-08-23T18:27:00.395Z,56.37
2022-08-23T18:32:05.528Z,56.75
2022-08-23T18:37:09.662Z,56.77
2022-08-23T18:42:12.709Z,57.19
2022-08-23T18:47:15.628Z,57.56
2022-08-23T18:52:19.796Z,58.07
2022-08-23T18:57:22.646Z,58.37
2022-08-23T19:02:25.514Z,58.79
2022-08-23T19:07:29.987Z,59.10
2022-08-23T19:12:33.170Z,59.60
2022-08-23T19:17:35.995Z,60.03
2022-08-23T19:22:40.195Z,60.52
2022-08-23T19:27:43.046Z,60.94
2022-08-23T19:32:46.231Z,61.16
2022-08-23T19:37:50.576Z,61.53
2022-08-23T19:42:53.463Z,61.81
2022-08-23T19:47:59.624Z,62.52
2022-08-23T19:53:04.178Z,62.85
2022-08-23T19:58:07.808Z,62.57
2022-08-23T20:03:11.733Z,63.29
2022-08-23T20:08:15.913Z,63.45
2022-08-23T20:13:20.038Z,63.56
2022-08-23T20:18:22.873Z,63.77
2022-08-23T20:23:44.407Z,64.14
2022-08-23T20:28:59.157Z,64.61
2022-08-23T20:34:03.606Z,64.94
2022-08-23T20:39:07.883Z,65.05
2022-08-23T20:44:10.629Z,65.16
2022-08-23T20:49:13.821Z,65.68
2022-08-23T20:54:18.514Z,65.75
2022-08-23T20:59:21.743Z,66.14
2022-08-23T21:04:29.997Z,66.33
2022-08-23T21:09:34.657Z,66.19
2022-08-23T21:14:37.477Z,66.73
2022-08-23T21:19:40.245Z,66.81
2022-08-23T21:24:44.515Z,67.09
2022-08-23T21:29:47.242Z,67.44
2022-08-23T21:34:50.020Z,67.32
2022-08-23T21:39:54.312Z,67.76
2022-08-23T21:44:57.368Z,68.17
2022-08-23T21:50:00.549Z,68.46
2022-08-23T21:55:06.364Z,68.25
2022-08-23T22:00:13.721Z,68.52
2022-08-23T22:05:16.819Z,68.64
2022-08-23T22:10:21.435Z,69.12
2022-08-23T22:15:25.611Z,69.38
2022-08-23T22:20:28.407Z,69.74
2022-08-23T22:25:33.115Z,69.99
2022-08-23T22:30:36.004Z,69.46
2022-08-23T22:35:39.143Z,70.21
2022-08-23T22:40:48.590Z,70.05
2022-08-23T22:45:52.409Z,70.80
2022-08-23T22:51:06.174Z,70.87
2022-08-23T22:56:12.231Z,71.28
2022-08-23T23:01:19.805Z,71.30
2022-08-23T23:06:24.152Z,71.77
2022-08-23T23:11:29.339Z,71.85
2022-08-23T23:16:32.775Z,72.11
2022-08-23T23:21:36.135Z,72.37
2022-08-23T23:26:40.597Z,72.61
2022-08-23T23:31:43.548Z,72.17
2022-08-23T23:36:46.286Z,72.57
2022-08-23T23:41:50.636Z,72.61
2022-08-23T23:46:53.417Z,72.47
2022-08-23T23:51:56.131Z,72.44
2022-08-23T23:57:00.345Z,72.97
